sensor_id;sensor_type;location;lat;lon;timestamp;P1;P2;P0
70554;PMS5003;58104;52.744;15.242;2024-02-26T00:01:55;19;18;
70554;PMS5003;58104;52.744;15.242;2024-02-26T00:04:21;19;17;
70554;PMS5003;58104;52.744;15.242;2024-02-26T00:06:47;23;19;
70554;PMS5003;58104;52.744;15.242;2024-02-26T00:09:12;22;16;
70554;PMS5003;58104;52.744;15.242;2024-02-26T00:11:37;18;18;
70554;PMS5003;58104;52.744;15.242;2024-02-26T00:14:03;24;22;
70554;PMS5003;58104;52.744;15.242;2024-02-26T00:16:29;23;23;
70554;PMS5003;58104;52.744;15.242;2024-02-26T00:18:54;23;23;
70554;PMS5003;58104;52.744;15.242;2024-02-26T00:21:20;24;24;
70554;PMS5003;58104;52.744;15.242;2024-02-26T00:23:45;27;24;
70554;PMS5003;58104;52.744;15.242;2024-02-26T00:26:10;26;22;
70554;PMS5003;58104;52.744;15.242;2024-02-26T00:28:35;26;21;
70554;PMS5003;58104;52.744;15.242;2024-02-26T00:31:01;24;21;
70554;PMS5003;58104;52.744;15.242;2024-02-26T00:33:26;24;23;
70554;PMS5003;58104;52.744;15.242;2024-02-26T00:35:51;23;21;
70554;PMS5003;58104;52.744;15.242;2024-02-26T00:38:17;25;23;
70554;PMS5003;58104;52.744;15.242;2024-02-26T00:40:42;26;23;
70554;PMS5003;58104;52.744;15.242;2024-02-26T00:43:08;26;25;
70554;PMS5003;58104;52.744;15.242;2024-02-26T00:45:33;29;27;
70554;PMS5003;58104;52.744;15.242;2024-02-26T00:47:58;22;21;
70554;PMS5003;58104;52.744;15.242;2024-02-26T00:50:23;23;21;
70554;PMS5003;58104;52.744;15.242;2024-02-26T00:52:48;23;21;
70554;PMS5003;58104;52.744;15.242;2024-02-26T00:55:14;24;21;
70554;PMS5003;58104;52.744;15.242;2024-02-26T00:57:39;23;22;
70554;PMS5003;58104;52.744;15.242;2024-02-26T01:00:05;26;23;
70554;PMS5003;58104;52.744;15.242;2024-02-26T01:02:30;24;21;
70554;PMS5003;58104;52.744;15.242;2024-02-26T01:04:55;30;27;
70554;PMS5003;58104;52.744;15.242;2024-02-26T01:07:20;25;23;
70554;PMS5003;58104;52.744;15.242;2024-02-26T01:09:47;24;19;
70554;PMS5003;58104;52.744;15.242;2024-02-26T01:12:12;31;28;
70554;PMS5003;58104;52.744;15.242;2024-02-26T01:14:37;25;24;
70554;PMS5003;58104;52.744;15.242;2024-02-26T01:17:03;25;24;
70554;PMS5003;58104;52.744;15.242;2024-02-26T01:19:28;29;29;
70554;PMS5003;58104;52.744;15.242;2024-02-26T01:21:54;25;22;
70554;PMS5003;58104;52.744;15.242;2024-02-26T01:24:20;30;27;
70554;PMS5003;58104;52.744;15.242;2024-02-26T01:26:46;32;23;
70554;PMS5003;58104;52.744;15.242;2024-02-26T01:29:11;27;25;
70554;PMS5003;58104;52.744;15.242;2024-02-26T01:31:36;29;27;
70554;PMS5003;58104;52.744;15.242;2024-02-26T01:34:02;34;30;
70554;PMS5003;58104;52.744;15.242;2024-02-26T01:36:27;34;30;
70554;PMS5003;58104;52.744;15.242;2024-02-26T01:38:53;30;29;
70554;PMS5003;58104;52.744;15.242;2024-02-26T01:41:18;34;28;
70554;PMS5003;58104;52.744;15.242;2024-02-26T01:43:44;30;27;
70554;PMS5003;58104;52.744;15.242;2024-02-26T01:46:11;36;29;
70554;PMS5003;58104;52.744;15.242;2024-02-26T01:48:35;36;31;
70554;PMS5003;58104;52.744;15.242;2024-02-26T01:51:00;30;26;
70554;PMS5003;58104;52.744;15.242;2024-02-26T01:53:26;26;25;
70554;PMS5003;58104;52.744;15.242;2024-02-26T01:55:52;33;28;
70554;PMS5003;58104;52.744;15.242;2024-02-26T01:58:17;26;26;
70554;PMS5003;58104;52.744;15.242;2024-02-26T02:00:43;30;25;
70554;PMS5003;58104;52.744;15.242;2024-02-26T02:03:08;25;23;
70554;PMS5003;58104;52.744;15.242;2024-02-26T02:05:33;30;26;
70554;PMS5003;58104;52.744;15.242;2024-02-26T02:07:58;21;20;
70554;PMS5003;58104;52.744;15.242;2024-02-26T02:10:24;21;19;
70554;PMS5003;58104;52.744;15.242;2024-02-26T02:12:49;29;25;
70554;PMS5003;58104;52.744;15.242;2024-02-26T02:15:15;25;23;
70554;PMS5003;58104;52.744;15.242;2024-02-26T02:17:40;26;22;
70554;PMS5003;58104;52.744;15.242;2024-02-26T02:20:08;24;22;
70554;PMS5003;58104;52.744;15.242;2024-02-26T02:22:32;23;21;
70554;PMS5003;58104;52.744;15.242;2024-02-26T02:24:57;30;22;
70554;PMS5003;58104;52.744;15.242;2024-02-26T02:27:22;21;20;
70554;PMS5003;58104;52.744;15.242;2024-02-26T02:29:47;23;23;
70554;PMS5003;58104;52.744;15.242;2024-02-26T02:32:12;21;20;
70554;PMS5003;58104;52.744;15.242;2024-02-26T02:34:37;23;21;
70554;PMS5003;58104;52.744;15.242;2024-02-26T02:37:03;27;25;
70554;PMS5003;58104;52.744;15.242;2024-02-26T02:39:28;23;20;
70554;PMS5003;58104;52.744;15.242;2024-02-26T02:41:53;22;19;
70554;PMS5003;58104;52.744;15.242;2024-02-26T02:44:19;24;23;
70554;PMS5003;58104;52.744;15.242;2024-02-26T02:46:45;20;18;
70554;PMS5003;58104;52.744;15.242;2024-02-26T02:49:10;20;20;
70554;PMS5003;58104;52.744;15.242;2024-02-26T02:51:36;21;19;
70554;PMS5003;58104;52.744;15.242;2024-02-26T02:54:02;22;19;
70554;PMS5003;58104;52.744;15.242;2024-02-26T02:56:27;21;21;
70554;PMS5003;58104;52.744;15.242;2024-02-26T02:58:52;24;21;
70554;PMS5003;58104;52.744;15.242;2024-02-26T03:01:17;22;21;
70554;PMS5003;58104;52.744;15.242;2024-02-26T03:03:42;18;16;
70554;PMS5003;58104;52.744;15.242;2024-02-26T03:06:08;23;22;
70554;PMS5003;58104;52.744;15.242;2024-02-26T03:08:33;22;18;
70554;PMS5003;58104;52.744;15.242;2024-02-26T03:10:59;19;19;
70554;PMS5003;58104;52.744;15.242;2024-02-26T03:13:24;19;19;
70554;PMS5003;58104;52.744;15.242;2024-02-26T03:15:49;17;17;
70554;PMS5003;58104;52.744;15.242;2024-02-26T03:18:15;20;19;
70554;PMS5003;58104;52.744;15.242;2024-02-26T03:20:40;17;15;
70554;PMS5003;58104;52.744;15.242;2024-02-26T03:23:05;21;19;
70554;PMS5003;58104;52.744;15.242;2024-02-26T03:25:31;23;22;
70554;PMS5003;58104;52.744;15.242;2024-02-26T03:27:57;25;22;
70554;PMS5003;58104;52.744;15.242;2024-02-26T03:30:23;24;17;
70554;PMS5003;58104;52.744;15.242;2024-02-26T03:32:48;20;19;
70554;PMS5003;58104;52.744;15.242;2024-02-26T03:35:13;18;16;
70554;PMS5003;58104;52.744;15.242;2024-02-26T03:37:39;27;24;
70554;PMS5003;58104;52.744;15.242;2024-02-26T03:40:05;18;17;
70554;PMS5003;58104;52.744;15.242;2024-02-26T03:42:29;21;21;
70554;PMS5003;58104;52.744;15.242;2024-02-26T03:44:55;21;20;
70554;PMS5003;58104;52.744;15.242;2024-02-26T03:47:21;22;19;
70554;PMS5003;58104;52.744;15.242;2024-02-26T03:49:46;23;19;
70554;PMS5003;58104;52.744;15.242;2024-02-26T03:52:11;26;25;
70554;PMS5003;58104;52.744;15.242;2024-02-26T03:54:36;17;16;
70554;PMS5003;58104;52.744;15.242;2024-02-26T03:57:02;29;26;
70554;PMS5003;58104;52.744;15.242;2024-02-26T03:59:27;19;19;
70554;PMS5003;58104;52.744;15.242;2024-02-26T04:01:53;20;19;
70554;PMS5003;58104;52.744;15.242;2024-02-26T04:04:18;19;17;
70554;PMS5003;58104;52.744;15.242;2024-02-26T04:06:44;19;19;
70554;PMS5003;58104;52.744;15.242;2024-02-26T04:09:09;25;20;
70554;PMS5003;58104;52.744;15.242;2024-02-26T04:11:34;23;21;
70554;PMS5003;58104;52.744;15.242;2024-02-26T04:14:00;21;20;
70554;PMS5003;58104;52.744;15.242;2024-02-26T04:16:25;24;19;
70554;PMS5003;58104;52.744;15.242;2024-02-26T04:18:50;25;21;
70554;PMS5003;58104;52.744;15.242;2024-02-26T04:21:16;21;17;
70554;PMS5003;58104;52.744;15.242;2024-02-26T04:23:41;18;18;
70554;PMS5003;58104;52.744;15.242;2024-02-26T04:26:07;23;18;
70554;PMS5003;58104;52.744;15.242;2024-02-26T04:28:32;21;21;
70554;PMS5003;58104;52.744;15.242;2024-02-26T04:30:58;27;25;
70554;PMS5003;58104;52.744;15.242;2024-02-26T04:33:23;23;21;
70554;PMS5003;58104;52.744;15.242;2024-02-26T04:35:48;23;22;
70554;PMS5003;58104;52.744;15.242;2024-02-26T04:38:14;16;15;
70554;PMS5003;58104;52.744;15.242;2024-02-26T04:40:39;23;21;
70554;PMS5003;58104;52.744;15.242;2024-02-26T04:43:05;19;19;
70554;PMS5003;58104;52.744;15.242;2024-02-26T04:45:30;26;22;
70554;PMS5003;58104;52.744;15.242;2024-02-26T04:47:56;26;19;
70554;PMS5003;58104;52.744;15.242;2024-02-26T04:50:21;27;24;
70554;PMS5003;58104;52.744;15.242;2024-02-26T04:52:46;20;20;
70554;PMS5003;58104;52.744;15.242;2024-02-26T04:55:12;24;22;
70554;PMS5003;58104;52.744;15.242;2024-02-26T04:57:37;26;22;
70554;PMS5003;58104;52.744;15.242;2024-02-26T05:00:03;19;19;
70554;PMS5003;58104;52.744;15.242;2024-02-26T05:02:28;24;23;
70554;PMS5003;58104;52.744;15.242;2024-02-26T05:04:53;22;20;
70554;PMS5003;58104;52.744;15.242;2024-02-26T05:07:19;22;18;
70554;PMS5003;58104;52.744;15.242;2024-02-26T05:09:44;26;22;
70554;PMS5003;58104;52.744;15.242;2024-02-26T05:12:10;32;28;
70554;PMS5003;58104;52.744;15.242;2024-02-26T05:14:35;22;19;
70554;PMS5003;58104;52.744;15.242;2024-02-26T05:17:01;20;20;
70554;PMS5003;58104;52.744;15.242;2024-02-26T05:19:26;21;21;
70554;PMS5003;58104;52.744;15.242;2024-02-26T05:21:52;25;24;
70554;PMS5003;58104;52.744;15.242;2024-02-26T05:24:19;25;22;
70554;PMS5003;58104;52.744;15.242;2024-02-26T05:26:43;29;24;
70554;PMS5003;58104;52.744;15.242;2024-02-26T05:29:08;28;26;
70554;PMS5003;58104;52.744;15.242;2024-02-26T05:31:33;24;19;
70554;PMS5003;58104;52.744;15.242;2024-02-26T05:33:59;25;19;
70554;PMS5003;58104;52.744;15.242;2024-02-26T05:36:25;25;24;
70554;PMS5003;58104;52.744;15.242;2024-02-26T05:38:50;25;24;
70554;PMS5003;58104;52.744;15.242;2024-02-26T05:41:15;25;23;
70554;PMS5003;58104;52.744;15.242;2024-02-26T05:43:41;22;22;
70554;PMS5003;58104;52.744;15.242;2024-02-26T05:46:06;31;24;
70554;PMS5003;58104;52.744;15.242;2024-02-26T05:48:31;24;22;
70554;PMS5003;58104;52.744;15.242;2024-02-26T05:50:57;27;24;
70554;PMS5003;58104;52.744;15.242;2024-02-26T05:53:23;30;24;
70554;PMS5003;58104;52.744;15.242;2024-02-26T05:55:48;32;28;
70554;PMS5003;58104;52.744;15.242;2024-02-26T05:58:14;26;24;
70554;PMS5003;58104;52.744;15.242;2024-02-26T06:00:40;31;29;
70554;PMS5003;58104;52.744;15.242;2024-02-26T06:03:05;25;23;
70554;PMS5003;58104;52.744;15.242;2024-02-26T06:05:31;32;27;
70554;PMS5003;58104;52.744;15.242;2024-02-26T06:07:56;28;24;
70554;PMS5003;58104;52.744;15.242;2024-02-26T06:10:21;29;24;
70554;PMS5003;58104;52.744;15.242;2024-02-26T06:12:46;25;24;
70554;PMS5003;58104;52.744;15.242;2024-02-26T06:15:12;30;27;
70554;PMS5003;58104;52.744;15.242;2024-02-26T06:17:38;29;26;
70554;PMS5003;58104;52.744;15.242;2024-02-26T06:20:04;27;27;
70554;PMS5003;58104;52.744;15.242;2024-02-26T06:22:29;37;30;
70554;PMS5003;58104;52.744;15.242;2024-02-26T06:24:55;34;30;
70554;PMS5003;58104;52.744;15.242;2024-02-26T06:27:21;38;31;
70554;PMS5003;58104;52.744;15.242;2024-02-26T06:29:46;33;30;
70554;PMS5003;58104;52.744;15.242;2024-02-26T06:32:13;44;38;
70554;PMS5003;58104;52.744;15.242;2024-02-26T06:34:38;49;41;
70554;PMS5003;58104;52.744;15.242;2024-02-26T06:37:03;36;30;
70554;PMS5003;58104;52.744;15.242;2024-02-26T06:39:28;40;35;
70554;PMS5003;58104;52.744;15.242;2024-02-26T06:41:53;36;34;
70554;PMS5003;58104;52.744;15.242;2024-02-26T06:44:19;36;34;
70554;PMS5003;58104;52.744;15.242;2024-02-26T06:46:44;44;36;
70554;PMS5003;58104;52.744;15.242;2024-02-26T06:49:10;41;38;
70554;PMS5003;58104;52.744;15.242;2024-02-26T06:51:35;37;34;
70554;PMS5003;58104;52.744;15.242;2024-02-26T06:54:00;44;39;
70554;PMS5003;58104;52.744;15.242;2024-02-26T06:56:26;44;41;
70554;PMS5003;58104;52.744;15.242;2024-02-26T06:58:51;45;42;
70554;PMS5003;58104;52.744;15.242;2024-02-26T07:01:17;42;36;
70554;PMS5003;58104;52.744;15.242;2024-02-26T07:03:42;41;35;
70554;PMS5003;58104;52.744;15.242;2024-02-26T07:06:08;50;40;
70554;PMS5003;58104;52.744;15.242;2024-02-26T07:08:34;44;37;
70554;PMS5003;58104;52.744;15.242;2024-02-26T07:10:59;42;41;
70554;PMS5003;58104;52.744;15.242;2024-02-26T07:13:24;41;38;
70554;PMS5003;58104;52.744;15.242;2024-02-26T07:15:49;45;40;
70554;PMS5003;58104;52.744;15.242;2024-02-26T07:18:15;42;39;
70554;PMS5003;58104;52.744;15.242;2024-02-26T07:20:40;72;59;
70554;PMS5003;58104;52.744;15.242;2024-02-26T07:23:06;60;57;
70554;PMS5003;58104;52.744;15.242;2024-02-26T07:25:34;55;50;
70554;PMS5003;58104;52.744;15.242;2024-02-26T07:27:56;61;57;
70554;PMS5003;58104;52.744;15.242;2024-02-26T07:30:22;59;55;
70554;PMS5003;58104;52.744;15.242;2024-02-26T07:32:47;65;60;
70554;PMS5003;58104;52.744;15.242;2024-02-26T07:35:12;61;59;
70554;PMS5003;58104;52.744;15.242;2024-02-26T07:37:38;62;54;
70554;PMS5003;58104;52.744;15.242;2024-02-26T07:40:03;64;57;
70554;PMS5003;58104;52.744;15.242;2024-02-26T07:42:28;61;55;
70554;PMS5003;58104;52.744;15.242;2024-02-26T07:44:54;72;65;
70554;PMS5003;58104;52.744;15.242;2024-02-26T07:47:19;59;52;
70554;PMS5003;58104;52.744;15.242;2024-02-26T07:49:45;72;59;
70554;PMS5003;58104;52.744;15.242;2024-02-26T07:52:10;73;65;
70554;PMS5003;58104;52.744;15.242;2024-02-26T07:54:36;64;58;
70554;PMS5003;58104;52.744;15.242;2024-02-26T07:57:01;79;60;
70554;PMS5003;58104;52.744;15.242;2024-02-26T07:59:26;65;61;
70554;PMS5003;58104;52.744;15.242;2024-02-26T08:01:52;68;59;
70554;PMS5003;58104;52.744;15.242;2024-02-26T08:04:18;68;60;
70554;PMS5003;58104;52.744;15.242;2024-02-26T08:06:43;74;65;
70554;PMS5003;58104;52.744;15.242;2024-02-26T08:09:08;71;66;
70554;PMS5003;58104;52.744;15.242;2024-02-26T08:11:33;64;57;
70554;PMS5003;58104;52.744;15.242;2024-02-26T08:13:59;65;57;
70554;PMS5003;58104;52.744;15.242;2024-02-26T08:16:24;67;60;
70554;PMS5003;58104;52.744;15.242;2024-02-26T08:18:50;63;56;
70554;PMS5003;58104;52.744;15.242;2024-02-26T08:21:15;68;64;
70554;PMS5003;58104;52.744;15.242;2024-02-26T08:23:42;68;61;
70554;PMS5003;58104;52.744;15.242;2024-02-26T08:26:06;62;53;
70554;PMS5003;58104;52.744;15.242;2024-02-26T08:28:31;64;56;
70554;PMS5003;58104;52.744;15.242;2024-02-26T08:30:56;64;58;
70554;PMS5003;58104;52.744;15.242;2024-02-26T08:33:22;70;63;
70554;PMS5003;58104;52.744;15.242;2024-02-26T08:35:48;72;63;
70554;PMS5003;58104;52.744;15.242;2024-02-26T08:38:15;67;61;
70554;PMS5003;58104;52.744;15.242;2024-02-26T08:40:38;64;60;
70554;PMS5003;58104;52.744;15.242;2024-02-26T08:43:04;65;63;
70554;PMS5003;58104;52.744;15.242;2024-02-26T08:45:29;72;60;
70554;PMS5003;58104;52.744;15.242;2024-02-26T08:47:54;62;57;
70554;PMS5003;58104;52.744;15.242;2024-02-26T08:50:20;75;66;
70554;PMS5003;58104;52.744;15.242;2024-02-26T08:52:45;62;58;
70554;PMS5003;58104;52.744;15.242;2024-02-26T08:55:11;75;69;
70554;PMS5003;58104;52.744;15.242;2024-02-26T08:57:36;75;65;
70554;PMS5003;58104;52.744;15.242;2024-02-26T09:00:02;68;67;
70554;PMS5003;58104;52.744;15.242;2024-02-26T09:02:27;75;67;
70554;PMS5003;58104;52.744;15.242;2024-02-26T09:04:53;73;67;
70554;PMS5003;58104;52.744;15.242;2024-02-26T09:07:18;66;57;
70554;PMS5003;58104;52.744;15.242;2024-02-26T09:09:43;72;67;
70554;PMS5003;58104;52.744;15.242;2024-02-26T09:12:08;69;62;
70554;PMS5003;58104;52.744;15.242;2024-02-26T09:14:34;70;63;
70554;PMS5003;58104;52.744;15.242;2024-02-26T09:17:00;71;64;
70554;PMS5003;58104;52.744;15.242;2024-02-26T09:19:26;57;53;
70554;PMS5003;58104;52.744;15.242;2024-02-26T09:21:52;65;61;
70554;PMS5003;58104;52.744;15.242;2024-02-26T09:24:16;66;65;
70554;PMS5003;58104;52.744;15.242;2024-02-26T09:26:42;60;53;
70554;PMS5003;58104;52.744;15.242;2024-02-26T09:29:08;69;61;
70554;PMS5003;58104;52.744;15.242;2024-02-26T09:31:33;74;64;
70554;PMS5003;58104;52.744;15.242;2024-02-26T09:33:58;62;57;
70554;PMS5003;58104;52.744;15.242;2024-02-26T09:36:23;73;71;
70554;PMS5003;58104;52.744;15.242;2024-02-26T09:38:49;73;62;
70554;PMS5003;58104;52.744;15.242;2024-02-26T09:41:14;69;61;
70554;PMS5003;58104;52.744;15.242;2024-02-26T09:43:39;73;65;
70554;PMS5003;58104;52.744;15.242;2024-02-26T09:46:05;69;65;
70554;PMS5003;58104;52.744;15.242;2024-02-26T09:48:31;58;55;
70554;PMS5003;58104;52.744;15.242;2024-02-26T09:50:57;66;59;
70554;PMS5003;58104;52.744;15.242;2024-02-26T09:53:22;59;57;
70554;PMS5003;58104;52.744;15.242;2024-02-26T09:55:48;57;55;
70554;PMS5003;58104;52.744;15.242;2024-02-26T09:58:13;60;56;
70554;PMS5003;58104;52.744;15.242;2024-02-26T10:00:38;55;50;
70554;PMS5003;58104;52.744;15.242;2024-02-26T10:03:05;56;48;
70554;PMS5003;58104;52.744;15.242;2024-02-26T10:05:29;58;52;
70554;PMS5003;58104;52.744;15.242;2024-02-26T10:07:55;62;53;
70554;PMS5003;58104;52.744;15.242;2024-02-26T10:10:20;65;53;
70554;PMS5003;58104;52.744;15.242;2024-02-26T10:12:45;60;54;
70554;PMS5003;58104;52.744;15.242;2024-02-26T10:15:10;63;62;
70554;PMS5003;58104;52.744;15.242;2024-02-26T10:17:36;68;59;
70554;PMS5003;58104;52.744;15.242;2024-02-26T10:22:27;59;56;
70554;PMS5003;58104;52.744;15.242;2024-02-26T10:24:53;60;59;
70554;PMS5003;58104;52.744;15.242;2024-02-26T10:27:18;55;51;
70554;PMS5003;58104;52.744;15.242;2024-02-26T10:29:44;58;53;
70554;PMS5003;58104;52.744;15.242;2024-02-26T10:32:09;62;55;
70554;PMS5003;58104;52.744;15.242;2024-02-26T10:34:35;58;56;
70554;PMS5003;58104;52.744;15.242;2024-02-26T10:37:01;64;58;
70554;PMS5003;58104;52.744;15.242;2024-02-26T10:39:26;55;53;
70554;PMS5003;58104;52.744;15.242;2024-02-26T10:41:51;56;53;
70554;PMS5003;58104;52.744;15.242;2024-02-26T10:44:17;53;50;
70554;PMS5003;58104;52.744;15.242;2024-02-26T10:46:43;56;54;
70554;PMS5003;58104;52.744;15.242;2024-02-26T10:49:13;59;49;
70554;PMS5003;58104;52.744;15.242;2024-02-26T10:51:35;61;56;
70554;PMS5003;58104;52.744;15.242;2024-02-26T10:53:59;59;53;
70554;PMS5003;58104;52.744;15.242;2024-02-26T10:56:25;55;53;
70554;PMS5003;58104;52.744;15.242;2024-02-26T10:58:50;52;49;
70554;PMS5003;58104;52.744;15.242;2024-02-26T11:01:15;68;54;
70554;PMS5003;58104;52.744;15.242;2024-02-26T11:03:41;59;56;
70554;PMS5003;58104;52.744;15.242;2024-02-26T11:06:06;55;51;
70554;PMS5003;58104;52.744;15.242;2024-02-26T11:08:31;52;51;
70554;PMS5003;58104;52.744;15.242;2024-02-26T11:10:57;53;50;
70554;PMS5003;58104;52.744;15.242;2024-02-26T11:13:23;54;53;
70554;PMS5003;58104;52.744;15.242;2024-02-26T11:15:48;53;44;
70554;PMS5003;58104;52.744;15.242;2024-02-26T11:18:14;45;42;
70554;PMS5003;58104;52.744;15.242;2024-02-26T11:20:39;49;45;
70554;PMS5003;58104;52.744;15.242;2024-02-26T11:23:04;47;42;
70554;PMS5003;58104;52.744;15.242;2024-02-26T11:25:30;39;39;
70554;PMS5003;58104;52.744;15.242;2024-02-26T11:27:56;40;38;
70554;PMS5003;58104;52.744;15.242;2024-02-26T11:30:21;47;40;
70554;PMS5003;58104;52.744;15.242;2024-02-26T11:32:46;49;47;
70554;PMS5003;58104;52.744;15.242;2024-02-26T11:35:11;40;38;
70554;PMS5003;58104;52.744;15.242;2024-02-26T11:37:37;42;40;
70554;PMS5003;58104;52.744;15.242;2024-02-26T11:40:02;47;44;
70554;PMS5003;58104;52.744;15.242;2024-02-26T11:42:27;41;41;
70554;PMS5003;58104;52.744;15.242;2024-02-26T11:44:52;43;40;
70554;PMS5003;58104;52.744;15.242;2024-02-26T11:47:18;39;39;
70554;PMS5003;58104;52.744;15.242;2024-02-26T11:49:43;40;38;
70554;PMS5003;58104;52.744;15.242;2024-02-26T11:52:08;37;34;
70554;PMS5003;58104;52.744;15.242;2024-02-26T11:54:38;39;37;
70554;PMS5003;58104;52.744;15.242;2024-02-26T11:56:58;40;37;
70554;PMS5003;58104;52.744;15.242;2024-02-26T12:01:49;37;31;
70554;PMS5003;58104;52.744;15.242;2024-02-26T12:04:17;36;35;
70554;PMS5003;58104;52.744;15.242;2024-02-26T12:06:42;42;38;
70554;PMS5003;58104;52.744;15.242;2024-02-26T12:09:05;41;38;
70554;PMS5003;58104;52.744;15.242;2024-02-26T12:11:30;36;34;
70554;PMS5003;58104;52.744;15.242;2024-02-26T12:13:55;39;39;
70554;PMS5003;58104;52.744;15.242;2024-02-26T12:18:53;37;35;
70554;PMS5003;58104;52.744;15.242;2024-02-26T12:21:12;33;29;
70554;PMS5003;58104;52.744;15.242;2024-02-26T12:23:37;37;35;
70554;PMS5003;58104;52.744;15.242;2024-02-26T12:26:02;34;31;
70554;PMS5003;58104;52.744;15.242;2024-02-26T12:28:27;36;30;
70554;PMS5003;58104;52.744;15.242;2024-02-26T12:30:52;39;37;
70554;PMS5003;58104;52.744;15.242;2024-02-26T12:33:18;40;37;
70554;PMS5003;58104;52.744;15.242;2024-02-26T12:35:44;35;34;
70554;PMS5003;58104;52.744;15.242;2024-02-26T12:38:09;35;30;
70554;PMS5003;58104;52.744;15.242;2024-02-26T12:40:35;35;33;
70554;PMS5003;58104;52.744;15.242;2024-02-26T12:43:00;29;25;
70554;PMS5003;58104;52.744;15.242;2024-02-26T12:45:25;34;30;
70554;PMS5003;58104;52.744;15.242;2024-02-26T12:47:51;33;30;
70554;PMS5003;58104;52.744;15.242;2024-02-26T12:50:16;29;26;
70554;PMS5003;58104;52.744;15.242;2024-02-26T12:52:43;36;33;
70554;PMS5003;58104;52.744;15.242;2024-02-26T12:55:07;30;27;
70554;PMS5003;58104;52.744;15.242;2024-02-26T12:57:33;30;28;
70554;PMS5003;58104;52.744;15.242;2024-02-26T12:59:58;29;27;
70554;PMS5003;58104;52.744;15.242;2024-02-26T13:02:24;28;24;
70554;PMS5003;58104;52.744;15.242;2024-02-26T13:04:50;33;28;
70554;PMS5003;58104;52.744;15.242;2024-02-26T13:07:14;34;30;
70554;PMS5003;58104;52.744;15.242;2024-02-26T13:09:40;35;29;
70554;PMS5003;58104;52.744;15.242;2024-02-26T13:12:06;28;25;
70554;PMS5003;58104;52.744;15.242;2024-02-26T13:14:30;26;23;
70554;PMS5003;58104;52.744;15.242;2024-02-26T13:16:56;26;22;
70554;PMS5003;58104;52.744;15.242;2024-02-26T13:19:21;25;22;
70554;PMS5003;58104;52.744;15.242;2024-02-26T13:21:46;28;25;
70554;PMS5003;58104;52.744;15.242;2024-02-26T13:24:12;26;26;
70554;PMS5003;58104;52.744;15.242;2024-02-26T13:26:38;26;26;
70554;PMS5003;58104;52.744;15.242;2024-02-26T13:29:03;21;21;
70554;PMS5003;58104;52.744;15.242;2024-02-26T13:31:28;24;21;
70554;PMS5003;58104;52.744;15.242;2024-02-26T13:33:54;24;23;
70554;PMS5003;58104;52.744;15.242;2024-02-26T13:36:19;26;25;
70554;PMS5003;58104;52.744;15.242;2024-02-26T13:38:51;29;25;
70554;PMS5003;58104;52.744;15.242;2024-02-26T13:41:10;25;23;
70554;PMS5003;58104;52.744;15.242;2024-02-26T13:43:36;26;21;
70554;PMS5003;58104;52.744;15.242;2024-02-26T13:46:02;28;26;
70554;PMS5003;58104;52.744;15.242;2024-02-26T13:48:27;27;27;
70554;PMS5003;58104;52.744;15.242;2024-02-26T13:50:54;29;28;
70554;PMS5003;58104;52.744;15.242;2024-02-26T13:53:18;31;31;
70554;PMS5003;58104;52.744;15.242;2024-02-26T13:55:43;28;25;
70554;PMS5003;58104;52.744;15.242;2024-02-26T13:58:11;28;27;
70554;PMS5003;58104;52.744;15.242;2024-02-26T14:00:34;26;24;
70554;PMS5003;58104;52.744;15.242;2024-02-26T14:02:59;26;24;
70554;PMS5003;58104;52.744;15.242;2024-02-26T14:05:24;33;29;
70554;PMS5003;58104;52.744;15.242;2024-02-26T14:07:50;27;23;
70554;PMS5003;58104;52.744;15.242;2024-02-26T14:10:15;30;27;
70554;PMS5003;58104;52.744;15.242;2024-02-26T14:12:41;28;26;
70554;PMS5003;58104;52.744;15.242;2024-02-26T14:15:07;29;25;
70554;PMS5003;58104;52.744;15.242;2024-02-26T14:17:31;35;35;
70554;PMS5003;58104;52.744;15.242;2024-02-26T14:19:56;29;26;
70554;PMS5003;58104;52.744;15.242;2024-02-26T14:22:24;33;31;
70554;PMS5003;58104;52.744;15.242;2024-02-26T14:24:47;32;30;
70554;PMS5003;58104;52.744;15.242;2024-02-26T14:27:13;30;28;
70554;PMS5003;58104;52.744;15.242;2024-02-26T14:29:38;29;25;
70554;PMS5003;58104;52.744;15.242;2024-02-26T14:32:04;39;34;
70554;PMS5003;58104;52.744;15.242;2024-02-26T14:34:29;34;31;
70554;PMS5003;58104;52.744;15.242;2024-02-26T14:36:54;31;28;
70554;PMS5003;58104;52.744;15.242;2024-02-26T14:39:20;35;30;
70554;PMS5003;58104;52.744;15.242;2024-02-26T14:41:45;35;33;
70554;PMS5003;58104;52.744;15.242;2024-02-26T14:44:10;32;30;
70554;PMS5003;58104;52.744;15.242;2024-02-26T14:46:36;33;32;
70554;PMS5003;58104;52.744;15.242;2024-02-26T14:49:02;34;32;
70554;PMS5003;58104;52.744;15.242;2024-02-26T14:51:26;35;34;
70554;PMS5003;58104;52.744;15.242;2024-02-26T14:53:52;32;30;
70554;PMS5003;58104;52.744;15.242;2024-02-26T14:56:19;30;29;
70554;PMS5003;58104;52.744;15.242;2024-02-26T14:58:43;37;35;
70554;PMS5003;58104;52.744;15.242;2024-02-26T15:01:09;28;27;
70554;PMS5003;58104;52.744;15.242;2024-02-26T15:03:34;36;32;
70554;PMS5003;58104;52.744;15.242;2024-02-26T15:06:00;28;28;
70554;PMS5003;58104;52.744;15.242;2024-02-26T15:08:25;34;32;
70554;PMS5003;58104;52.744;15.242;2024-02-26T15:10:50;32;30;
70554;PMS5003;58104;52.744;15.242;2024-02-26T15:13:16;33;30;
70554;PMS5003;58104;52.744;15.242;2024-02-26T15:15:41;38;36;
70554;PMS5003;58104;52.744;15.242;2024-02-26T15:18:07;34;30;
70554;PMS5003;58104;52.744;15.242;2024-02-26T15:20:32;39;32;
70554;PMS5003;58104;52.744;15.242;2024-02-26T15:22:57;37;33;
70554;PMS5003;58104;52.744;15.242;2024-02-26T15:25:23;37;33;
70554;PMS5003;58104;52.744;15.242;2024-02-26T15:27:48;40;37;
70554;PMS5003;58104;52.744;15.242;2024-02-26T15:30:13;39;34;
70554;PMS5003;58104;52.744;15.242;2024-02-26T15:32:39;36;36;
70554;PMS5003;58104;52.744;15.242;2024-02-26T15:35:04;37;36;
70554;PMS5003;58104;52.744;15.242;2024-02-26T15:37:31;40;38;
70554;PMS5003;58104;52.744;15.242;2024-02-26T15:39:55;38;33;
70554;PMS5003;58104;52.744;15.242;2024-02-26T15:42:20;37;32;
70554;PMS5003;58104;52.744;15.242;2024-02-26T15:44:45;36;33;
70554;PMS5003;58104;52.744;15.242;2024-02-26T15:47:11;41;38;
70554;PMS5003;58104;52.744;15.242;2024-02-26T15:49:36;35;32;
70554;PMS5003;58104;52.744;15.242;2024-02-26T15:52:02;38;33;
70554;PMS5003;58104;52.744;15.242;2024-02-26T15:54:27;43;37;
70554;PMS5003;58104;52.744;15.242;2024-02-26T15:56:52;34;34;